Terminal Aerodrome Forecast
Issued by NWS Blacksburg, VA

Current Version | Previous Version | Text Only | Print | Product List | Glossary Off
Versions: 1 2 3 4 5 6 7 8 9 10 11 12 13 14 15 16 17 18 19 20 21 22 23 24

000
FTUS41 KRNK 041135
TAFBLF
TAF
KBLF 041135Z 0412/0512 24005KT P6SM SKC
     FM041400 24008KT P6SM SCT050
     FM041700 27008G16KT P6SM BKN050
     FM042300 25005KT P6SM SCT060 SCT250
      AMD NOT SKED=

USA.gov is the U.S. government's official web portal to all federal, state and local government web resources and services.